Arabia, OH

10:49 PM EDT on August 29, 2014 (GMT -0400)
Tri-State / Ferguson | Change Station
CLOSE
Current Station
Airport
Location: Huntington,
Elevation: 837 ft
Nearby Weather Stations

Elev 837 ft 38.37 °N, 82.56 °W | Updated 58 minutes ago

Partly Cloudy
Partly Cloudy
76 °F
Feels Like 76 °F
N
0
Wind Variable Wind from North

Today
High -- | Low -- °F
--% Chance of Precip.
Yesterday
High -- | Low -- °F
Precip. -- in
6:57 AM 8:05 PM
Waxing Crescent, 18% visible
Pressure 30.04 in
Visibility 10.0 miles
Clouds Few 8000 ft
Dew Point 71 °F
Humidity 85%
Rainfall 0.00 in
Snow Depth Not available.
UV 0 out of 12
Pollen 9.90 out of 12
Air Quality Not available.
Flu Activity Not available.
METAR KHTS 300151Z AUTO 00000KT 10SM FEW080 24/22 A3006 RMK AO2 SLP172 T02440217 TSNO

More Conditions Fewer Conditions

Pressure 30.04 in
Visibility 10.0 miles
Clouds Few 8000 ft
Dew Point 71 °F
Humidity 85%
Rainfall 0.00 in
Snow Depth Not available.
UV 0 out of 12
Pollen 9.90 out of 12
Air Quality Not available.
Flu Activity Not available.
METAR KHTS 300151Z AUTO 00000KT 10SM FEW080 24/22 A3006 RMK AO2 SLP172 T02440217 TSNO

More Conditions Fewer Conditions

10-Day Weather Forecast

Almanac

Astronomy

Aug. 29, 2014 Rise Set
Actual Time 6:57 AM EDT 8:05 PM EDT
Civil Twilight 6:29 AM EDT 8:32 PM EDT
Nautical Twilight 5:56 AM EDT 9:05 PM EDT
Astronomical Twilight 5:22 AM EDT 9:38 PM EDT
Moon 10:42 AM EDT (8/29) 10:05 PM EDT (8/29)
Length of Visible Light 14h 02m
Length of Day
13h 08m
Tomorrow will be 2m 23s shorter.
Waxing Crescent, 18% of the Moon is Illuminated
Today
Waxing Crescent
Sep 2
First Quarter
Sep 8
Full
Sep 15
Last Quarter
Sep 24
New

Today's Extremes

State Highs State Lows

Community

WunderPhotos

Upload Photos

1,748,421 photos uploaded!

Nearby

Snow Depth

Station Depth Elevation
No new snow has been reported.

Earthquake Activity

City Distance Mag. Time & Date
No recent earthquake activity has been reported nearby.
Minimum magnitude displayed is 2.5.

Coastal Water Temperatures

Place Temperature
No Stations Reporting

Nearby Weather Stations